sensor_id;sensor_type;location;lat;lon;timestamp;pressure;altitude;pressure_sealevel;temperature;humidity
69058;BME280;56128;37.534;-122.308;2023-04-01T00:00:51;102246.34;;;13.90;66.88
69058;BME280;56128;37.534;-122.308;2023-04-01T00:03:19;102247.63;;;13.85;70.10
69058;BME280;56128;37.534;-122.308;2023-04-01T00:05:46;102248.25;;;13.75;69.69
69058;BME280;56128;37.534;-122.308;2023-04-01T00:08:12;102238.28;;;13.63;67.27
69058;BME280;56128;37.534;-122.308;2023-04-01T00:10:39;102248.66;;;13.55;63.16
69058;BME280;56128;37.534;-122.308;2023-04-01T00:13:06;102237.91;;;13.55;71.17
69058;BME280;56128;37.534;-122.308;2023-04-01T00:15:33;102251.47;;;13.53;68.91
69058;BME280;56128;37.534;-122.308;2023-04-01T00:17:59;102237.56;;;13.46;66.79
69058;BME280;56128;37.534;-122.308;2023-04-01T00:20:27;102232.59;;;13.40;67.84
69058;BME280;56128;37.534;-122.308;2023-04-01T00:22:53;102231.50;;;13.28;63.36
69058;BME280;56128;37.534;-122.308;2023-04-01T00:25:19;102236.22;;;13.25;69.47
69058;BME280;56128;37.534;-122.308;2023-04-01T00:27:45;102234.13;;;13.15;67.86
69058;BME280;56128;37.534;-122.308;2023-04-01T00:30:12;102238.72;;;13.13;68.24
69058;BME280;56128;37.534;-122.308;2023-04-01T00:32:39;102240.75;;;13.10;67.26
69058;BME280;56128;37.534;-122.308;2023-04-01T00:35:05;102237.38;;;13.06;69.87
69058;BME280;56128;37.534;-122.308;2023-04-01T00:37:35;102243.63;;;13.07;72.29
69058;BME280;56128;37.534;-122.308;2023-04-01T00:40:03;102247.56;;;13.01;73.45
69058;BME280;56128;37.534;-122.308;2023-04-01T00:42:31;102246.81;;;12.99;74.78
69058;BME280;56128;37.534;-122.308;2023-04-01T00:44:57;102243.44;;;12.95;74.79
69058;BME280;56128;37.534;-122.308;2023-04-01T00:47:25;102244.88;;;12.87;75.69
69058;BME280;56128;37.534;-122.308;2023-04-01T00:49:54;102243.53;;;12.79;76.29
69058;BME280;56128;37.534;-122.308;2023-04-01T00:52:23;102236.63;;;12.75;79.92
69058;BME280;56128;37.534;-122.308;2023-04-01T00:54:56;102236.22;;;12.67;78.43
69058;BME280;56128;37.534;-122.308;2023-04-01T00:57:29;102239.59;;;12.56;81.05
69058;BME280;56128;37.534;-122.308;2023-04-01T00:59:57;102245.50;;;12.47;84.08
69058;BME280;56128;37.534;-122.308;2023-04-01T01:02:24;102245.59;;;12.45;86.13
69058;BME280;56128;37.534;-122.308;2023-04-01T01:04:51;102245.13;;;12.39;86.06
69058;BME280;56128;37.534;-122.308;2023-04-01T01:07:30;102244.59;;;12.32;83.11
69058;BME280;56128;37.534;-122.308;2023-04-01T01:12:51;102246.38;;;12.17;81.77
69058;BME280;56128;37.534;-122.308;2023-04-01T01:15:29;102248.84;;;12.06;81.84
69058;BME280;56128;37.534;-122.308;2023-04-01T01:26:38;102248.78;;;11.75;81.88
69058;BME280;56128;37.534;-122.308;2023-04-01T01:29:16;102245.59;;;11.68;81.97
69058;BME280;56128;37.534;-122.308;2023-04-01T01:32:00;102239.78;;;11.60;83.88
69058;BME280;56128;37.534;-122.308;2023-04-01T01:37:30;102243.78;;;11.37;85.07
69058;BME280;56128;37.534;-122.308;2023-04-01T01:40:01;102247.56;;;11.33;85.52
69058;BME280;56128;37.534;-122.308;2023-04-01T01:42:32;102252.06;;;11.16;90.39
69058;BME280;56128;37.534;-122.308;2023-04-01T01:45:01;102262.78;;;11.16;92.98
69058;BME280;56128;37.534;-122.308;2023-04-01T01:47:30;102258.78;;;11.08;88.23
69058;BME280;56128;37.534;-122.308;2023-04-01T01:49:57;102254.78;;;10.99;88.75
69058;BME280;56128;37.534;-122.308;2023-04-01T01:52:23;102249.16;;;10.87;92.92
69058;BME280;56128;37.534;-122.308;2023-04-01T01:54:52;102260.88;;;10.85;94.50
69058;BME280;56128;37.534;-122.308;2023-04-01T01:57:25;102260.50;;;10.75;95.29
69058;BME280;56128;37.534;-122.308;2023-04-01T01:59:56;102255.78;;;10.63;93.06
69058;BME280;56128;37.534;-122.308;2023-04-01T02:02:25;102255.59;;;10.50;95.51
69058;BME280;56128;37.534;-122.308;2023-04-01T02:04:53;102261.03;;;10.48;97.17
69058;BME280;56128;37.534;-122.308;2023-04-01T02:07:26;102261.69;;;10.34;98.85
69058;BME280;56128;37.534;-122.308;2023-04-01T02:09:54;102264.91;;;10.23;97.03
69058;BME280;56128;37.534;-122.308;2023-04-01T02:12:22;102265.22;;;10.17;97.27
69058;BME280;56128;37.534;-122.308;2023-04-01T02:15:11;102267.03;;;9.99;100.00
69058;BME280;56128;37.534;-122.308;2023-04-01T02:17:43;102268.19;;;9.94;99.18
69058;BME280;56128;37.534;-122.308;2023-04-01T02:20:20;102268.66;;;9.84;98.22
69058;BME280;56128;37.534;-122.308;2023-04-01T02:22:54;102274.47;;;9.75;100.00
69058;BME280;56128;37.534;-122.308;2023-04-01T02:25:33;102265.22;;;9.63;98.87
69058;BME280;56128;37.534;-122.308;2023-04-01T02:28:01;102266.50;;;9.54;99.94
69058;BME280;56128;37.534;-122.308;2023-04-01T02:30:32;102261.63;;;9.45;100.00
69058;BME280;56128;37.534;-122.308;2023-04-01T02:32:59;102268.19;;;9.38;100.00
69058;BME280;56128;37.534;-122.308;2023-04-01T02:35:26;102270.41;;;9.28;100.00
69058;BME280;56128;37.534;-122.308;2023-04-01T02:37:54;102266.25;;;9.22;100.00
69058;BME280;56128;37.534;-122.308;2023-04-01T02:40:21;102264.06;;;9.12;100.00
69058;BME280;56128;37.534;-122.308;2023-04-01T02:42:47;102268.94;;;9.02;100.00
69058;BME280;56128;37.534;-122.308;2023-04-01T02:45:14;102265.63;;;8.97;100.00
69058;BME280;56128;37.534;-122.308;2023-04-01T02:47:40;102261.44;;;8.91;100.00
69058;BME280;56128;37.534;-122.308;2023-04-01T02:50:08;102262.56;;;8.85;100.00
69058;BME280;56128;37.534;-122.308;2023-04-01T02:52:34;102261.75;;;8.83;100.00
69058;BME280;56128;37.534;-122.308;2023-04-01T02:55:01;102256.84;;;8.74;100.00
69058;BME280;56128;37.534;-122.308;2023-04-01T02:57:27;102259.41;;;8.56;100.00
69058;BME280;56128;37.534;-122.308;2023-04-01T02:59:54;102268.25;;;8.57;100.00
69058;BME280;56128;37.534;-122.308;2023-04-01T03:02:20;102264.16;;;8.50;100.00
69058;BME280;56128;37.534;-122.308;2023-04-01T03:04:47;102264.38;;;8.43;100.00
69058;BME280;56128;37.534;-122.308;2023-04-01T03:07:13;102259.50;;;8.33;100.00
69058;BME280;56128;37.534;-122.308;2023-04-01T03:09:39;102275.63;;;8.29;100.00
69058;BME280;56128;37.534;-122.308;2023-04-01T03:12:06;102270.88;;;8.16;100.00
69058;BME280;56128;37.534;-122.308;2023-04-01T03:14:32;102278.31;;;8.07;100.00
69058;BME280;56128;37.534;-122.308;2023-04-01T03:16:59;102276.97;;;7.97;100.00
69058;BME280;56128;37.534;-122.308;2023-04-01T03:19:25;102277.28;;;7.89;100.00
69058;BME280;56128;37.534;-122.308;2023-04-01T03:21:51;102281.91;;;7.84;100.00
69058;BME280;56128;37.534;-122.308;2023-04-01T03:24:17;102279.78;;;7.72;100.00
69058;BME280;56128;37.534;-122.308;2023-04-01T03:26:44;102287.19;;;7.63;100.00
69058;BME280;56128;37.534;-122.308;2023-04-01T03:29:10;102289.34;;;7.54;100.00
69058;BME280;56128;37.534;-122.308;2023-04-01T03:31:41;102290.56;;;7.45;100.00
69058;BME280;56128;37.534;-122.308;2023-04-01T03:34:08;102278.59;;;7.33;100.00
69058;BME280;56128;37.534;-122.308;2023-04-01T03:36:34;102294.75;;;7.28;100.00
69058;BME280;56128;37.534;-122.308;2023-04-01T03:39:00;102296.03;;;7.18;100.00
69058;BME280;56128;37.534;-122.308;2023-04-01T03:41:27;102298.16;;;7.08;100.00
69058;BME280;56128;37.534;-122.308;2023-04-01T03:43:53;102300.19;;;7.02;100.00
69058;BME280;56128;37.534;-122.308;2023-04-01T03:46:20;102302.28;;;6.92;100.00
69058;BME280;56128;37.534;-122.308;2023-04-01T03:48:47;102301.88;;;6.79;100.00
69058;BME280;56128;37.534;-122.308;2023-04-01T03:51:13;102308.22;;;6.75;100.00
69058;BME280;56128;37.534;-122.308;2023-04-01T03:53:40;102305.81;;;6.67;100.00
69058;BME280;56128;37.534;-122.308;2023-04-01T03:56:07;102306.81;;;6.64;100.00
69058;BME280;56128;37.534;-122.308;2023-04-01T03:58:34;102307.63;;;6.66;100.00
69058;BME280;56128;37.534;-122.308;2023-04-01T04:01:01;102290.84;;;6.64;100.00
69058;BME280;56128;37.534;-122.308;2023-04-01T04:03:27;102308.63;;;6.62;100.00
69058;BME280;56128;37.534;-122.308;2023-04-01T04:05:53;102308.06;;;6.54;100.00
69058;BME280;56128;37.534;-122.308;2023-04-01T04:08:21;102318.97;;;6.46;100.00
69058;BME280;56128;37.534;-122.308;2023-04-01T04:10:53;102308.47;;;6.42;100.00
69058;BME280;56128;37.534;-122.308;2023-04-01T04:13:20;102316.66;;;6.36;100.00
69058;BME280;56128;37.534;-122.308;2023-04-01T04:15:46;102315.03;;;6.30;100.00
69058;BME280;56128;37.534;-122.308;2023-04-01T04:18:12;102310.81;;;6.24;100.00
69058;BME280;56128;37.534;-122.308;2023-04-01T04:20:44;102324.38;;;6.16;100.00
69058;BME280;56128;37.534;-122.308;2023-04-01T04:23:12;102315.63;;;6.13;100.00
69058;BME280;56128;37.534;-122.308;2023-04-01T04:25:38;102308.69;;;6.09;100.00
69058;BME280;56128;37.534;-122.308;2023-04-01T04:28:05;102307.84;;;6.07;100.00
69058;BME280;56128;37.534;-122.308;2023-04-01T04:30:31;102309.88;;;5.98;100.00
69058;BME280;56128;37.534;-122.308;2023-04-01T04:32:57;102308.31;;;5.91;100.00
69058;BME280;56128;37.534;-122.308;2023-04-01T04:35:23;102317.25;;;5.89;100.00
69058;BME280;56128;37.534;-122.308;2023-04-01T04:37:50;102315.59;;;5.84;100.00
69058;BME280;56128;37.534;-122.308;2023-04-01T04:40:16;102320.09;;;5.82;100.00
69058;BME280;56128;37.534;-122.308;2023-04-01T04:42:42;102314.16;;;5.74;100.00
69058;BME280;56128;37.534;-122.308;2023-04-01T04:45:08;102319.56;;;5.71;100.00
69058;BME280;56128;37.534;-122.308;2023-04-01T04:47:35;102327.66;;;5.66;100.00
69058;BME280;56128;37.534;-122.308;2023-04-01T04:50:01;102319.88;;;5.60;100.00
69058;BME280;56128;37.534;-122.308;2023-04-01T04:52:27;102326.09;;;5.59;100.00
69058;BME280;56128;37.534;-122.308;2023-04-01T04:54:53;102334.19;;;5.55;100.00
69058;BME280;56128;37.534;-122.308;2023-04-01T04:57:20;102331.69;;;5.50;100.00
69058;BME280;56128;37.534;-122.308;2023-04-01T04:59:46;102336.19;;;5.48;100.00
69058;BME280;56128;37.534;-122.308;2023-04-01T05:02:12;102339.13;;;5.39;100.00
69058;BME280;56128;37.534;-122.308;2023-04-01T05:04:38;102342.84;;;5.31;100.00
69058;BME280;56128;37.534;-122.308;2023-04-01T05:07:05;102334.22;;;5.23;100.00
69058;BME280;56128;37.534;-122.308;2023-04-01T05:09:31;102339.53;;;5.23;100.00
69058;BME280;56128;37.534;-122.308;2023-04-01T05:11:57;102340.66;;;5.16;100.00
69058;BME280;56128;37.534;-122.308;2023-04-01T05:14:27;102345.00;;;5.17;100.00
69058;BME280;56128;37.534;-122.308;2023-04-01T05:16:53;102346.94;;;5.12;100.00
69058;BME280;56128;37.534;-122.308;2023-04-01T05:19:20;102347.03;;;5.09;100.00
69058;BME280;56128;37.534;-122.308;2023-04-01T05:21:46;102347.25;;;5.01;100.00
69058;BME280;56128;37.534;-122.308;2023-04-01T05:24:12;102345.44;;;5.01;100.00
69058;BME280;56128;37.534;-122.308;2023-04-01T05:26:42;102347.25;;;4.99;100.00
69058;BME280;56128;37.534;-122.308;2023-04-01T05:29:08;102338.44;;;4.99;100.00
69058;BME280;56128;37.534;-122.308;2023-04-01T05:31:34;102343.69;;;5.00;100.00
69058;BME280;56128;37.534;-122.308;2023-04-01T05:34:00;102344.72;;;4.96;100.00
69058;BME280;56128;37.534;-122.308;2023-04-01T05:36:27;102344.03;;;4.88;100.00
69058;BME280;56128;37.534;-122.308;2023-04-01T05:38:55;102348.53;;;4.86;100.00
69058;BME280;56128;37.534;-122.308;2023-04-01T05:41:22;102349.59;;;4.79;100.00
69058;BME280;56128;37.534;-122.308;2023-04-01T05:43:48;102353.25;;;4.75;100.00
69058;BME280;56128;37.534;-122.308;2023-04-01T05:46:14;102346.31;;;4.69;100.00
69058;BME280;56128;37.534;-122.308;2023-04-01T05:48:40;102346.41;;;4.66;100.00
69058;BME280;56128;37.534;-122.308;2023-04-01T05:51:11;102342.84;;;4.65;100.00
69058;BME280;56128;37.534;-122.308;2023-04-01T05:53:38;102339.41;;;4.62;100.00
69058;BME280;56128;37.534;-122.308;2023-04-01T05:56:04;102333.34;;;4.58;100.00
69058;BME280;56128;37.534;-122.308;2023-04-01T05:58:30;102327.19;;;4.56;100.00
69058;BME280;56128;37.534;-122.308;2023-04-01T06:01:05;102341.41;;;4.53;100.00
69058;BME280;56128;37.534;-122.308;2023-04-01T06:03:32;102332.66;;;4.50;100.00
69058;BME280;56128;37.534;-122.308;2023-04-01T06:05:59;102335.34;;;4.48;100.00
69058;BME280;56128;37.534;-122.308;2023-04-01T06:08:28;102342.41;;;4.48;100.00
69058;BME280;56128;37.534;-122.308;2023-04-01T06:11:29;102333.81;;;4.39;100.00
69058;BME280;56128;37.534;-122.308;2023-04-01T06:14:11;102338.25;;;4.37;100.00
69058;BME280;56128;37.534;-122.308;2023-04-01T06:20:14;102334.88;;;4.32;100.00
69058;BME280;56128;37.534;-122.308;2023-04-01T06:22:58;102333.13;;;4.31;100.00
69058;BME280;56128;37.534;-122.308;2023-04-01T06:28:48;102341.31;;;4.22;100.00
69058;BME280;56128;37.534;-122.308;2023-04-01T06:40:00;102331.19;;;4.02;100.00
69058;BME280;56128;37.534;-122.308;2023-04-01T06:42:38;102332.13;;;3.98;100.00
69058;BME280;56128;37.534;-122.308;2023-04-01T06:45:38;102321.53;;;3.98;100.00
69058;BME280;56128;37.534;-122.308;2023-04-01T06:56:24;102316.44;;;3.90;100.00
69058;BME280;56128;37.534;-122.308;2023-04-01T06:58:53;102328.88;;;3.86;100.00
69058;BME280;56128;37.534;-122.308;2023-04-01T07:01:30;102334.34;;;3.80;100.00
69058;BME280;56128;37.534;-122.308;2023-04-01T07:04:09;102331.75;;;3.77;100.00
69058;BME280;56128;37.534;-122.308;2023-04-01T07:06:43;102335.31;;;3.74;100.00
69058;BME280;56128;37.534;-122.308;2023-04-01T07:09:21;102333.66;;;3.70;100.00
69058;BME280;56128;37.534;-122.308;2023-04-01T07:11:48;102332.00;;;3.65;100.00
69058;BME280;56128;37.534;-122.308;2023-04-01T07:19:53;102354.16;;;3.61;100.00
69058;BME280;56128;37.534;-122.308;2023-04-01T07:22:43;102352.44;;;3.58;100.00
69058;BME280;56128;37.534;-122.308;2023-04-01T07:25:17;102358.59;;;3.58;100.00
69058;BME280;56128;37.534;-122.308;2023-04-01T07:27:45;102355.91;;;3.60;100.00
69058;BME280;56128;37.534;-122.308;2023-04-01T07:30:15;102359.53;;;3.56;100.00
69058;BME280;56128;37.534;-122.308;2023-04-01T07:32:59;102356.91;;;3.56;100.00
69058;BME280;56128;37.534;-122.308;2023-04-01T07:36:02;102349.78;;;3.60;100.00
69058;BME280;56128;37.534;-122.308;2023-04-01T07:44:21;102357.50;;;3.70;100.00
69058;BME280;56128;37.534;-122.308;2023-04-01T07:49:38;102352.38;;;3.61;100.00
69058;BME280;56128;37.534;-122.308;2023-04-01T07:52:16;102346.31;;;3.56;100.00
69058;BME280;56128;37.534;-122.308;2023-04-01T07:55:10;102350.78;;;3.54;100.00
69058;BME280;56128;37.534;-122.308;2023-04-01T08:00:42;102349.94;;;3.52;100.00
69058;BME280;56128;37.534;-122.308;2023-04-01T08:03:21;102343.75;;;3.51;100.00
69058;BME280;56128;37.534;-122.308;2023-04-01T08:05:56;102349.97;;;3.50;100.00
69058;BME280;56128;37.534;-122.308;2023-04-01T08:08:29;102348.09;;;3.55;100.00
69058;BME280;56128;37.534;-122.308;2023-04-01T08:13:58;102347.22;;;3.55;100.00
69058;BME280;56128;37.534;-122.308;2023-04-01T08:16:35;102349.00;;;3.54;100.00
69058;BME280;56128;37.534;-122.308;2023-04-01T08:22:23;102347.31;;;3.50;100.00
69058;BME280;56128;37.534;-122.308;2023-04-01T08:24:55;102354.41;;;3.48;100.00
69058;BME280;56128;37.534;-122.308;2023-04-01T08:27:48;102346.47;;;3.48;100.00
69058;BME280;56128;37.534;-122.308;2023-04-01T08:30:24;102345.63;;;3.46;100.00
69058;BME280;56128;37.534;-122.308;2023-04-01T08:33:05;102337.69;;;3.48;100.00
69058;BME280;56128;37.534;-122.308;2023-04-01T08:35:46;102338.50;;;3.50;100.00
69058;BME280;56128;37.534;-122.308;2023-04-01T08:38:51;102335.97;;;3.45;100.00
69058;BME280;56128;37.534;-122.308;2023-04-01T08:53:17;102346.00;;;3.29;100.00
69058;BME280;56128;37.534;-122.308;2023-04-01T08:56:06;102332.84;;;3.24;100.00
69058;BME280;56128;37.534;-122.308;2023-04-01T08:58:42;102328.50;;;3.22;100.00
69058;BME280;56128;37.534;-122.308;2023-04-01T09:01:41;102318.00;;;3.19;100.00
69058;BME280;56128;37.534;-122.308;2023-04-01T09:10:24;102318.00;;;3.19;100.00
69058;BME280;56128;37.534;-122.308;2023-04-01T09:16:40;102316.28;;;3.15;100.00
69058;BME280;56128;37.534;-122.308;2023-04-01T09:22:22;102305.78;;;3.12;100.00
69058;BME280;56128;37.534;-122.308;2023-04-01T09:35:50;102297.06;;;3.06;100.00
69058;BME280;56128;37.534;-122.308;2023-04-01T09:41:31;102290.94;;;3.04;100.00
69058;BME280;56128;37.534;-122.308;2023-04-01T09:52:43;102293.69;;;2.98;100.00
69058;BME280;56128;37.534;-122.308;2023-04-01T10:01:01;102299.97;;;2.94;100.00
69058;BME280;56128;37.534;-122.308;2023-04-01T10:06:23;102300.03;;;2.89;100.00
69058;BME280;56128;37.534;-122.308;2023-04-01T10:17:47;102286.09;;;2.81;100.00
69058;BME280;56128;37.534;-122.308;2023-04-01T10:20:28;102295.78;;;2.81;100.00
69058;BME280;56128;37.534;-122.308;2023-04-01T10:23:10;102294.13;;;2.76;100.00
69058;BME280;56128;37.534;-122.308;2023-04-01T10:43:34;102287.19;;;2.69;100.00
69058;BME280;56128;37.534;-122.308;2023-04-01T10:48:58;102286.34;;;2.69;100.00
69058;BME280;56128;37.534;-122.308;2023-04-01T10:51:59;102300.50;;;2.65;100.00
69058;BME280;56128;37.534;-122.308;2023-04-01T10:54:45;102289.16;;;2.58;100.00
69058;BME280;56128;37.534;-122.308;2023-04-01T11:00:27;102295.28;;;2.62;100.00
69058;BME280;56128;37.534;-122.308;2023-04-01T11:06:07;102304.06;;;2.62;100.00
69058;BME280;56128;37.534;-122.308;2023-04-01T11:11:47;102286.44;;;2.63;100.00
69058;BME280;56128;37.534;-122.308;2023-04-01T11:14:43;102283.69;;;2.67;100.00
69058;BME280;56128;37.534;-122.308;2023-04-01T11:26:07;102261.66;;;2.70;100.00
69058;BME280;56128;37.534;-122.308;2023-04-01T11:31:58;102253.78;;;2.67;100.00
69058;BME280;56128;37.534;-122.308;2023-04-01T11:45:51;102227.38;;;2.65;100.00
69058;BME280;56128;37.534;-122.308;2023-04-01T11:51:28;102240.78;;;2.54;100.00
69058;BME280;56128;37.534;-122.308;2023-04-01T11:57:05;102238.28;;;2.47;100.00
69058;BME280;56128;37.534;-122.308;2023-04-01T11:59:51;102225.97;;;2.46;100.00
69058;BME280;56128;37.534;-122.308;2023-04-01T12:05:31;102228.56;;;2.49;100.00
69058;BME280;56128;37.534;-122.308;2023-04-01T12:08:46;102232.16;;;2.44;100.00
69058;BME280;56128;37.534;-122.308;2023-04-01T12:11:28;102241.91;;;2.42;100.00
69058;BME280;56128;37.534;-122.308;2023-04-01T12:19:51;102241.97;;;2.38;100.00
69058;BME280;56128;37.534;-122.308;2023-04-01T12:36:13;102246.44;;;2.34;100.00
69058;BME280;56128;37.534;-122.308;2023-04-01T12:42:18;102246.47;;;2.33;100.00
69058;BME280;56128;37.534;-122.308;2023-04-01T12:45:11;102238.59;;;2.31;100.00
69058;BME280;56128;37.534;-122.308;2023-04-01T12:48:14;102242.16;;;2.29;100.00
69058;BME280;56128;37.534;-122.308;2023-04-01T12:51:25;102241.16;;;2.34;100.00
69058;BME280;56128;37.534;-122.308;2023-04-01T13:25:56;102263.38;;;2.21;100.00
69058;BME280;56128;37.534;-122.308;2023-04-01T13:28:28;102267.84;;;2.19;100.00
69058;BME280;56128;37.534;-122.308;2023-04-01T13:33:42;102273.94;;;2.21;100.00
69058;BME280;56128;37.534;-122.308;2023-04-01T13:39:40;102274.88;;;2.20;100.00
69058;BME280;56128;37.534;-122.308;2023-04-01T13:42:23;102276.66;;;2.18;100.00
69058;BME280;56128;37.534;-122.308;2023-04-01T13:45:14;102279.38;;;2.15;100.00
69058;BME280;56128;37.534;-122.308;2023-04-01T13:54:28;102297.03;;;2.09;100.00
69058;BME280;56128;37.534;-122.308;2023-04-01T13:59:30;102277.69;;;2.09;100.00
69058;BME280;56128;37.534;-122.308;2023-04-01T14:02:21;102289.09;;;2.09;100.00
69058;BME280;56128;37.534;-122.308;2023-04-01T14:11:32;102300.47;;;2.16;100.00
69058;BME280;56128;37.534;-122.308;2023-04-01T14:16:40;102304.75;;;2.23;100.00
69058;BME280;56128;37.534;-122.308;2023-04-01T14:28:00;102297.28;;;2.49;100.00
69058;BME280;56128;37.534;-122.308;2023-04-01T14:40:56;102300.31;;;2.75;100.00
69058;BME280;56128;37.534;-122.308;2023-04-01T14:43:41;102299.38;;;2.78;100.00
69058;BME280;56128;37.534;-122.308;2023-04-01T14:49:46;102314.84;;;2.98;100.00
69058;BME280;56128;37.534;-122.308;2023-04-01T14:52:28;102313.75;;;3.08;100.00
69058;BME280;56128;37.534;-122.308;2023-04-01T14:54:58;102319.59;;;3.26;100.00
69058;BME280;56128;37.534;-122.308;2023-04-01T14:57:29;102323.81;;;3.36;100.00
69058;BME280;56128;37.534;-122.308;2023-04-01T15:00:18;102320.78;;;3.53;100.00
69058;BME280;56128;37.534;-122.308;2023-04-01T15:03:02;102327.53;;;3.68;100.00
69058;BME280;56128;37.534;-122.308;2023-04-01T15:05:47;102323.56;;;3.88;100.00
69058;BME280;56128;37.534;-122.308;2023-04-01T15:08:43;102317.06;;;4.01;100.00
69058;BME280;56128;37.534;-122.308;2023-04-01T15:14:11;102331.22;;;4.36;100.00
69058;BME280;56128;37.534;-122.308;2023-04-01T15:16:47;102323.59;;;4.59;100.00
69058;BME280;56128;37.534;-122.308;2023-04-01T15:19:21;102324.03;;;4.76;100.00
69058;BME280;56128;37.534;-122.308;2023-04-01T15:22:20;102319.03;;;4.98;100.00
69058;BME280;56128;37.534;-122.308;2023-04-01T15:25:20;102330.59;;;5.27;100.00
69058;BME280;56128;37.534;-122.308;2023-04-01T15:28:15;102315.78;;;5.50;100.00
69058;BME280;56128;37.534;-122.308;2023-04-01T15:30:48;102325.59;;;5.76;100.00
69058;BME280;56128;37.534;-122.308;2023-04-01T15:33:22;102324.81;;;6.03;100.00
69058;BME280;56128;37.534;-122.308;2023-04-01T15:36:02;102324.69;;;6.34;100.00
69058;BME280;56128;37.534;-122.308;2023-04-01T15:43:50;102309.47;;;8.07;100.00
69058;BME280;56128;37.534;-122.308;2023-04-01T15:49:36;102308.47;;;9.71;100.00
69058;BME280;56128;37.534;-122.308;2023-04-01T15:52:14;102304.16;;;10.05;100.00
69058;BME280;56128;37.534;-122.308;2023-04-01T16:00:22;102309.41;;;11.62;100.00
69058;BME280;56128;37.534;-122.308;2023-04-01T16:05:42;102305.44;;;12.47;100.00
69058;BME280;56128;37.534;-122.308;2023-04-01T16:10:59;102306.22;;;13.09;100.00
69058;BME280;56128;37.534;-122.308;2023-04-01T16:13:59;102315.44;;;13.48;100.00
69058;BME280;56128;37.534;-122.308;2023-04-01T16:19:07;102318.59;;;14.24;97.25
69058;BME280;56128;37.534;-122.308;2023-04-01T16:21:51;102306.13;;;14.76;95.94
69058;BME280;56128;37.534;-122.308;2023-04-01T16:30:34;102309.84;;;15.88;84.05
69058;BME280;56128;37.534;-122.308;2023-04-01T16:33:24;102318.41;;;16.06;79.14
69058;BME280;56128;37.534;-122.308;2023-04-01T16:47:35;102324.03;;;16.27;73.96
69058;BME280;56128;37.534;-122.308;2023-04-01T16:58:35;102317.88;;;17.42;61.69
69058;BME280;56128;37.534;-122.308;2023-04-01T17:01:19;102309.66;;;17.43;60.34
69058;BME280;56128;37.534;-122.308;2023-04-01T17:03:57;102316.09;;;17.97;61.77
69058;BME280;56128;37.534;-122.308;2023-04-01T17:09:27;102315.50;;;18.26;58.27
69058;BME280;56128;37.534;-122.308;2023-04-01T17:18:02;102314.63;;;18.26;56.46
69058;BME280;56128;37.534;-122.308;2023-04-01T17:26:08;102321.78;;;19.42;56.36
69058;BME280;56128;37.534;-122.308;2023-04-01T17:28:59;102316.81;;;19.48;57.18
69058;BME280;56128;37.534;-122.308;2023-04-01T17:37:05;102326.38;;;18.69;52.03
69058;BME280;56128;37.534;-122.308;2023-04-01T17:42:42;102324.91;;;18.64;51.93
69058;BME280;56128;37.534;-122.308;2023-04-01T17:45:49;102333.13;;;17.43;53.50
69058;BME280;56128;37.534;-122.308;2023-04-01T17:51:14;102315.34;;;19.43;50.76
69058;BME280;56128;37.534;-122.308;2023-04-01T17:56:35;102325.94;;;19.46;50.87
69058;BME280;56128;37.534;-122.308;2023-04-01T18:10:25;102325.56;;;17.80;54.90
69058;BME280;56128;37.534;-122.308;2023-04-01T18:21:14;102321.00;;;19.00;51.79
69058;BME280;56128;37.534;-122.308;2023-04-01T18:23:54;102318.53;;;18.00;53.55
69058;BME280;56128;37.534;-122.308;2023-04-01T18:26:24;102313.47;;;18.40;53.76
69058;BME280;56128;37.534;-122.308;2023-04-01T18:28:57;102308.00;;;18.51;52.26
69058;BME280;56128;37.534;-122.308;2023-04-01T18:31:33;102316.09;;;18.30;53.07
69058;BME280;56128;37.534;-122.308;2023-04-01T18:34:07;102306.38;;;18.70;53.85
69058;BME280;56128;37.534;-122.308;2023-04-01T18:36:53;102319.03;;;17.94;54.07
69058;BME280;56128;37.534;-122.308;2023-04-01T18:39:41;102303.50;;;19.04;52.49
69058;BME280;56128;37.534;-122.308;2023-04-01T18:53:26;102306.19;;;18.40;51.06
69058;BME280;56128;37.534;-122.308;2023-04-01T18:56:31;102303.09;;;18.45;52.77
69058;BME280;56128;37.534;-122.308;2023-04-01T19:02:05;102290.03;;;18.92;51.93
69058;BME280;56128;37.534;-122.308;2023-04-01T19:05:04;102281.44;;;18.12;53.27
69058;BME280;56128;37.534;-122.308;2023-04-01T19:07:56;102278.91;;;17.88;52.62
69058;BME280;56128;37.534;-122.308;2023-04-01T19:13:17;102284.94;;;17.92;54.54
69058;BME280;56128;37.534;-122.308;2023-04-01T19:16:04;102285.69;;;17.27;54.83
69058;BME280;56128;37.534;-122.308;2023-04-01T19:21:35;102286.28;;;17.31;55.13
69058;BME280;56128;37.534;-122.308;2023-04-01T19:27:20;102275.81;;;17.38;57.22
69058;BME280;56128;37.534;-122.308;2023-04-01T19:30:48;102283.47;;;16.98;57.59
69058;BME280;56128;37.534;-122.308;2023-04-01T19:33:39;102279.81;;;16.75;60.14
69058;BME280;56128;37.534;-122.308;2023-04-01T19:36:36;102275.50;;;16.61;60.91
69058;BME280;56128;37.534;-122.308;2023-04-01T19:39:44;102275.25;;;15.69;62.39
69058;BME280;56128;37.534;-122.308;2023-04-01T19:47:30;102270.94;;;15.66;66.99
69058;BME280;56128;37.534;-122.308;2023-04-01T19:52:49;102261.81;;;16.04;72.04
69058;BME280;56128;37.534;-122.308;2023-04-01T20:00:37;102262.22;;;15.63;70.72
69058;BME280;56128;37.534;-122.308;2023-04-01T20:11:45;102247.16;;;15.71;72.49